createdAt,value
2019-04-16T00:01:42.377Z,12.80
2019-04-16T00:19:25.736Z,10.80
2019-04-16T00:22:02.523Z,11.77
2019-04-16T00:24:33.601Z,12.83
2019-04-16T00:27:03.926Z,14.00
2019-04-16T00:29:39.428Z,12.83
2019-04-16T00:32:09.094Z,12.13
2019-04-16T00:34:36.957Z,12.87
2019-04-16T00:37:07.296Z,13.67
2019-04-16T00:39:37.609Z,12.83
2019-04-16T00:42:10.997Z,13.50
2019-04-16T00:44:43.377Z,13.20
2019-04-16T00:47:13.693Z,12.27
2019-04-16T00:49:44.012Z,12.30
2019-04-16T00:52:15.376Z,12.17
2019-04-16T00:54:53.004Z,12.63
2019-04-16T00:57:23.355Z,10.83
2019-04-16T00:59:56.125Z,12.20
2019-04-16T01:02:24.764Z,11.90
2019-04-16T01:04:59.203Z,12.97
2019-04-16T01:07:29.526Z,12.10
2019-04-16T01:09:59.844Z,11.10
2019-04-16T01:12:32.240Z,10.60
2019-04-16T01:15:02.563Z,10.50
2019-04-16T01:17:33.410Z,12.13
2019-04-16T01:20:03.224Z,13.03
2019-04-16T01:22:35.583Z,10.07
2019-04-16T01:25:05.899Z,12.37
2019-04-16T01:27:36.239Z,13.70
2019-04-16T01:30:06.869Z,12.03
2019-04-16T01:32:54.588Z,11.67
2019-04-16T01:35:30.508Z,10.00
2019-04-16T01:38:15.767Z,10.87
2019-04-16T01:40:50.096Z,12.27
2019-04-16T01:43:37.260Z,11.23
2019-04-16T01:46:07.576Z,12.80
2019-04-16T01:48:38.937Z,13.53
2019-04-16T01:51:29.658Z,13.93
2019-04-16T01:53:59.973Z,13.10
2019-04-16T01:56:30.286Z,11.83
2019-04-16T01:59:04.544Z,11.73
2019-04-16T02:01:30.943Z,13.40
2019-04-16T02:04:01.259Z,13.10
2019-04-16T02:06:31.622Z,12.60
2019-04-16T02:09:03.161Z,12.63
2019-04-16T02:11:33.024Z,10.87
2019-04-16T02:14:03.371Z,11.30
2019-04-16T02:16:34.718Z,11.50
2019-04-16T02:19:05.032Z,12.30
2019-04-16T02:21:35.615Z,12.83
2019-04-16T02:24:05.936Z,13.50
2019-04-16T02:26:36.256Z,14.93
2019-04-16T02:29:06.593Z,14.33
2019-04-16T02:31:36.913Z,13.60
2019-04-16T02:34:07.301Z,15.97
2019-04-16T02:36:37.576Z,15.07
2019-04-16T02:39:08.907Z,16.10
2019-04-16T02:41:39.221Z,13.67
2019-04-16T02:44:14.180Z,13.73
2019-04-16T02:46:39.891Z,13.67
2019-04-16T02:49:10.984Z,15.10
2019-04-16T02:51:44.040Z,13.27
2019-04-16T02:54:22.655Z,14.50
2019-04-16T02:56:53.756Z,15.27
2019-04-16T02:59:29.877Z,13.77
2019-04-16T03:02:09.016Z,14.17
2019-04-16T03:04:39.336Z,12.40
2019-04-16T03:07:09.666Z,11.90
2019-04-16T03:09:41.102Z,12.60
2019-04-16T03:12:11.366Z,13.27
2019-04-16T03:14:43.728Z,14.67
2019-04-16T03:17:21.825Z,11.03
2019-04-16T03:19:55.832Z,9.53
2019-04-16T03:22:26.152Z,11.80
2019-04-16T03:24:56.496Z,10.73
2019-04-16T03:27:30.900Z,9.87
2019-04-16T03:30:03.523Z,12.53
2019-04-16T03:32:35.218Z,11.23
2019-04-16T03:35:04.152Z,12.17
2019-04-16T03:37:34.275Z,12.53
2019-04-16T03:40:16.105Z,13.70
2019-04-16T03:42:36.997Z,12.10
2019-04-16T03:45:09.390Z,13.10
2019-04-16T03:47:37.671Z,13.97
2019-04-16T03:50:07.994Z,13.90
2019-04-16T03:52:40.908Z,12.73
2019-04-16T03:55:08.660Z,13.27
2019-04-16T03:57:38.986Z,13.60
2019-04-16T04:00:12.465Z,13.50
2019-04-16T04:02:40.419Z,13.43
2019-04-16T04:05:10.743Z,13.83
2019-04-16T04:07:44.250Z,14.30
2019-04-16T04:10:12.568Z,14.60
2019-04-16T04:12:45.802Z,14.93
2019-04-16T04:15:14.235Z,14.30
2019-04-16T04:17:44.580Z,14.77
2019-04-16T04:20:18.149Z,14.17
2019-04-16T04:22:45.216Z,15.17
2019-04-16T04:25:15.802Z,15.37
2019-04-16T04:27:46.703Z,15.03
2019-04-16T04:33:00.148Z,16.53
2019-04-16T04:35:31.487Z,16.20
2019-04-16T04:38:04.169Z,16.33
2019-04-16T04:40:43.763Z,15.33
2019-04-16T04:43:04.424Z,15.30
2019-04-16T04:45:37.658Z,15.33
2019-04-16T04:48:07.128Z,15.20
2019-04-16T04:50:43.830Z,14.73
2019-04-16T04:53:15.650Z,16.90
2019-04-16T04:55:44.501Z,16.13
2019-04-16T04:58:14.971Z,16.10
2019-04-16T05:00:45.159Z,17.00
2019-04-16T05:03:34.295Z,15.57
2019-04-16T05:06:04.637Z,15.13
2019-04-16T05:08:34.956Z,17.03
2019-04-16T05:11:05.272Z,17.70
2019-04-16T05:13:35.617Z,14.80
2019-04-16T05:16:07.133Z,16.30
2019-04-16T05:18:41.404Z,16.50
2019-04-16T05:21:07.357Z,16.77
2019-04-16T05:23:37.872Z,17.33
2019-04-16T05:26:09.810Z,17.00
2019-04-16T05:28:38.329Z,16.27
2019-04-16T05:31:08.647Z,18.17
2019-04-16T05:33:38.969Z,16.57
2019-04-16T05:36:11.079Z,17.40
2019-04-16T05:38:40.387Z,17.60
2019-04-16T05:41:13.480Z,16.00
2019-04-16T05:43:41.054Z,16.80
2019-04-16T05:46:11.619Z,16.97
2019-04-16T05:48:41.933Z,16.27
2019-04-16T05:51:12.321Z,16.80
2019-04-16T05:53:42.605Z,16.43
2019-04-16T05:56:12.928Z,17.73
2019-04-16T05:58:43.267Z,16.57
2019-04-16T06:01:14.155Z,16.23
2019-04-16T06:03:43.912Z,17.77
2019-04-16T06:06:14.240Z,17.77
2019-04-16T06:09:11.827Z,17.53
2019-04-16T06:11:37.861Z,17.23
2019-04-16T06:14:16.770Z,17.30
2019-04-16T06:16:42.067Z,18.37
2019-04-16T06:19:17.878Z,17.50
2019-04-16T06:22:00.967Z,18.17
2019-04-16T06:24:32.336Z,21.17
2019-04-16T06:27:07.138Z,18.53
2019-04-16T06:29:52.188Z,15.47
2019-04-16T06:32:46.351Z,16.93
2019-04-16T06:35:43.196Z,16.80
2019-04-16T06:38:11.725Z,17.03
2019-04-16T06:40:51.119Z,16.97
2019-04-16T06:43:25.474Z,17.73
2019-04-16T06:46:00.836Z,18.27
2019-04-16T06:48:31.162Z,16.57
2019-04-16T06:51:19.244Z,18.63
2019-04-16T06:54:07.252Z,16.80
2019-04-16T06:56:41.085Z,16.83
2019-04-16T06:59:11.338Z,16.50
2019-04-16T07:01:56.896Z,25.62
2019-04-16T07:04:39.000Z,19.60
2019-04-16T07:07:11.900Z,17.23
2019-04-16T07:09:46.330Z,19.50
2019-04-16T07:12:17.696Z,17.00
2019-04-16T07:14:49.041Z,18.33
2019-04-16T07:17:18.876Z,17.80
2019-04-16T07:19:48.694Z,17.23
2019-04-16T07:22:21.316Z,17.90
2019-04-16T07:24:50.417Z,17.90
2019-04-16T07:27:21.415Z,17.07
2019-04-16T07:29:51.819Z,16.27
2019-04-16T07:32:27.433Z,18.77
2019-04-16T07:35:09.566Z,18.77
2019-04-16T07:40:32.021Z,19.00
2019-04-16T07:43:22.453Z,18.07
2019-04-16T07:46:07.878Z,16.93
2019-04-16T07:48:56.020Z,17.23
2019-04-16T07:51:44.551Z,16.80
2019-04-16T07:54:14.900Z,16.87
2019-04-16T07:56:49.315Z,17.80
2019-04-16T07:59:19.635Z,19.30
2019-04-16T08:01:49.981Z,17.60
2019-04-16T08:04:41.749Z,17.47
2019-04-16T08:07:12.092Z,17.87
2019-04-16T08:09:43.176Z,16.73
2019-04-16T08:12:29.247Z,21.17
2019-04-16T08:14:45.881Z,17.47
2019-04-16T08:17:19.260Z,18.03
2019-04-16T08:19:49.607Z,19.40
2019-04-16T08:22:19.972Z,17.90
2019-04-16T08:24:59.754Z,18.83
2019-04-16T08:27:26.311Z,17.73
2019-04-16T08:30:03.362Z,17.37
2019-04-16T08:32:34.197Z,19.00
2019-04-16T08:35:06.496Z,19.30
2019-04-16T08:37:48.854Z,18.07
2019-04-16T08:40:13.155Z,18.77
2019-04-16T08:42:44.626Z,18.43
2019-04-16T08:45:12.956Z,18.67
2019-04-16T08:47:58.292Z,18.77
2019-04-16T08:50:33.758Z,18.57
2019-04-16T08:53:04.086Z,17.93
2019-04-16T08:55:34.418Z,20.23
2019-04-16T08:58:07.132Z,18.67
2019-04-16T09:00:36.101Z,19.97
2019-04-16T09:03:06.429Z,17.73
2019-04-16T09:05:41.263Z,20.03
2019-04-16T09:08:23.483Z,17.53
2019-04-16T09:10:54.616Z,19.23
2019-04-16T09:13:27.551Z,18.23
2019-04-16T09:16:00.050Z,17.60
2019-04-16T09:18:30.281Z,18.83
2019-04-16T09:21:00.605Z,18.57
2019-04-16T09:23:30.938Z,18.27
2019-04-16T09:26:13.573Z,17.27
2019-04-16T09:28:40.031Z,19.07
2019-04-16T09:31:10.406Z,19.50
2019-04-16T09:33:43.156Z,20.33
2019-04-16T09:36:22.409Z,19.90
2019-04-16T09:38:55.452Z,18.63
2019-04-16T09:41:28.201Z,20.50
2019-04-16T09:43:58.627Z,20.77
2019-04-16T09:46:49.754Z,17.57
2019-04-16T09:48:59.234Z,18.97
2019-04-16T09:51:29.594Z,19.47
2019-04-16T09:53:59.928Z,19.77
2019-04-16T09:56:30.553Z,21.17
2019-04-16T09:59:00.622Z,18.07
2019-04-16T10:04:20.927Z,19.23
2019-04-16T10:06:51.261Z,19.03
2019-04-16T10:09:22.563Z,18.70
2019-04-16T10:11:51.942Z,19.30
2019-04-16T10:14:26.371Z,17.23
2019-04-16T10:17:01.837Z,19.00
2019-04-16T10:19:32.167Z,20.20
2019-04-16T10:22:02.513Z,18.83
2019-04-16T10:24:52.787Z,20.03
2019-04-16T10:27:38.296Z,19.43
2019-04-16T10:30:20.262Z,19.73
2019-04-16T10:32:52.658Z,17.53
2019-04-16T10:35:23.000Z,17.57
2019-04-16T10:37:53.364Z,17.80
2019-04-16T10:40:28.816Z,19.10
2019-04-16T10:42:59.170Z,19.40
2019-04-16T10:45:30.330Z,20.07
2019-04-16T10:48:22.806Z,17.90
2019-04-16T10:50:59.177Z,19.17
2019-04-16T10:54:01.692Z,19.30
2019-04-16T10:56:49.747Z,19.87
2019-04-16T10:59:38.174Z,19.13
2019-04-16T11:02:28.711Z,20.60
2019-04-16T11:05:02.186Z,18.50
2019-04-16T11:07:37.448Z,17.57
2019-04-16T11:10:11.674Z,19.13
2019-04-16T11:12:38.906Z,19.47
2019-04-16T11:15:10.282Z,19.97
2019-04-16T11:17:40.609Z,19.13
2019-04-16T11:20:10.965Z,20.40
2019-04-16T11:22:41.265Z,18.83
2019-04-16T11:25:11.642Z,19.47
2019-04-16T11:27:42.029Z,19.03
2019-04-16T11:30:12.304Z,17.70
2019-04-16T11:32:42.658Z,18.20
2019-04-16T11:35:16.731Z,18.10
2019-04-16T11:37:44.561Z,19.03
2019-04-16T11:40:13.706Z,21.37
2019-04-16T11:42:44.126Z,17.53
2019-04-16T11:45:14.355Z,18.60
2019-04-16T11:47:48.040Z,19.17
2019-04-16T11:50:15.024Z,18.80
2019-04-16T11:52:46.110Z,19.33
2019-04-16T11:55:18.503Z,19.13
2019-04-16T11:57:48.897Z,20.10
2019-04-16T12:00:34.288Z,19.00
2019-04-16T12:03:25.741Z,18.13
2019-04-16T12:05:58.116Z,16.10
2019-04-16T12:08:28.510Z,18.00
2019-04-16T12:14:32.387Z,16.77
2019-04-16T12:16:57.585Z,17.13
2019-04-16T12:19:45.855Z,17.40
2019-04-16T12:22:16.211Z,17.80
2019-04-16T12:24:52.142Z,17.63
2019-04-16T12:27:34.945Z,17.50
2019-04-16T12:30:20.044Z,16.87
2019-04-16T12:32:59.309Z,15.23
2019-04-16T12:35:47.521Z,17.50
2019-04-16T12:38:18.757Z,17.83
2019-04-16T12:40:49.268Z,16.80
2019-04-16T12:43:25.379Z,16.13
2019-04-16T12:46:13.795Z,17.03
2019-04-16T12:48:52.763Z,16.43
2019-04-16T12:51:40.995Z,18.10
2019-04-16T12:54:11.247Z,16.67
2019-04-16T12:56:43.959Z,15.63
2019-04-16T12:59:22.103Z,14.90
2019-04-16T13:02:06.076Z,17.07
2019-04-16T13:04:51.232Z,16.23
2019-04-16T13:07:23.907Z,16.43
2019-04-16T13:09:56.904Z,16.17
2019-04-16T13:12:57.307Z,16.63
2019-04-16T13:15:27.886Z,16.57
2019-04-16T13:18:00.644Z,17.43
2019-04-16T13:20:36.703Z,16.57
2019-04-16T13:23:45.619Z,16.57
2019-04-16T13:26:18.684Z,16.10
2019-04-16T13:28:49.010Z,17.77
2019-04-16T13:31:19.341Z,15.50
2019-04-16T13:33:50.960Z,15.80
2019-04-16T13:36:27.824Z,16.83
2019-04-16T13:38:56.578Z,15.43
2019-04-16T13:41:27.156Z,15.90
2019-04-16T13:44:09.963Z,14.60
2019-04-16T13:46:39.773Z,15.60
2019-04-16T13:49:13.698Z,17.63
2019-04-16T13:51:44.993Z,15.00
2019-04-16T13:54:28.160Z,15.53
2019-04-16T13:56:59.508Z,14.27
2019-04-16T13:59:31.105Z,13.47
2019-04-16T14:02:00.162Z,15.97
2019-04-16T14:04:31.688Z,13.70
2019-04-16T14:07:00.830Z,16.47
2019-04-16T14:09:31.152Z,14.37
2019-04-16T14:12:01.491Z,15.63
2019-04-16T14:14:32.578Z,14.53
2019-04-16T14:17:09.781Z,15.07
2019-04-16T14:19:38.785Z,14.00
2019-04-16T14:22:08.684Z,13.63
2019-04-16T14:24:44.366Z,13.47
2019-04-16T14:27:14.714Z,14.80
2019-04-16T14:29:45.037Z,14.90
2019-04-16T14:32:15.360Z,15.87
2019-04-16T14:34:49.322Z,12.40
2019-04-16T14:37:25.935Z,19.15
2019-04-16T14:40:02.313Z,14.17
2019-04-16T14:42:32.503Z,15.27
2019-04-16T14:45:20.652Z,14.60
2019-04-16T14:47:54.046Z,14.90
2019-04-16T14:50:24.639Z,16.10
2019-04-16T14:52:54.716Z,16.17
2019-04-16T14:55:30.714Z,15.63
2019-04-16T14:58:22.949Z,14.17
2019-04-16T15:00:59.276Z,14.03
2019-04-16T15:03:29.500Z,14.27
2019-04-16T15:06:09.306Z,14.17
2019-04-16T15:08:58.907Z,13.03
2019-04-16T15:11:31.499Z,13.03
2019-04-16T15:14:03.808Z,14.60
2019-04-16T15:16:52.099Z,13.87
2019-04-16T15:19:25.988Z,12.27
2019-04-16T15:22:16.259Z,12.87
2019-04-16T15:24:47.602Z,13.47
2019-04-16T15:30:11.491Z,13.90
2019-04-16T15:32:41.809Z,12.37
2019-04-16T15:35:26.893Z,10.83
2019-04-16T15:38:11.934Z,12.63
2019-04-16T15:40:46.789Z,12.40
2019-04-16T15:43:19.315Z,11.33
2019-04-16T15:45:49.537Z,11.57
2019-04-16T15:48:37.887Z,11.60
2019-04-16T15:51:13.559Z,11.73
2019-04-16T15:53:38.539Z,12.30
2019-04-16T15:56:11.489Z,11.90
2019-04-16T15:58:41.811Z,12.00
2019-04-16T16:01:12.134Z,11.27
2019-04-16T16:03:42.475Z,11.03
2019-04-16T16:06:20.329Z,11.70
2019-04-16T16:08:47.941Z,9.60
2019-04-16T16:11:22.370Z,9.27
2019-04-16T16:14:11.985Z,11.03
2019-04-16T16:16:42.466Z,10.40
2019-04-16T16:19:12.648Z,8.80
2019-04-16T16:21:43.917Z,9.30
2019-04-16T16:24:14.262Z,9.37
2019-04-16T16:26:50.770Z,8.47
2019-04-16T16:29:21.053Z,8.00
2019-04-16T16:31:57.499Z,8.33
2019-04-16T16:34:27.835Z,8.20
2019-04-16T16:36:59.174Z,9.60
2019-04-16T16:39:29.492Z,8.87
2019-04-16T16:41:59.829Z,8.57
2019-04-16T16:44:30.401Z,7.43
2019-04-16T16:47:18.727Z,8.40
2019-04-16T16:49:51.165Z,9.83
2019-04-16T16:52:39.409Z,10.63
2019-04-16T16:55:09.663Z,9.80
2019-04-16T16:57:50.011Z,10.07
2019-04-16T17:00:20.727Z,10.07
2019-04-16T17:02:50.651Z,10.20
2019-04-16T17:05:26.700Z,9.63
2019-04-16T17:07:57.017Z,10.13
2019-04-16T17:10:28.100Z,9.50
2019-04-16T17:13:02.541Z,9.37
2019-04-16T17:15:33.296Z,9.40
2019-04-16T17:18:03.543Z,9.10
2019-04-16T17:20:34.659Z,8.53
2019-04-16T17:23:04.977Z,9.57
2019-04-16T17:25:36.791Z,10.03
2019-04-16T17:28:05.889Z,8.43
2019-04-16T17:30:36.210Z,9.80
2019-04-16T17:33:06.532Z,10.13
2019-04-16T17:35:36.876Z,9.97
2019-04-16T17:38:09.247Z,10.03
2019-04-16T17:40:42.343Z,10.23
2019-04-16T17:43:17.216Z,9.67
2019-04-16T17:45:50.320Z,10.33
2019-04-16T17:48:20.932Z,8.50
2019-04-16T17:51:08.780Z,9.63
2019-04-16T17:53:47.962Z,10.90
2019-04-16T17:56:30.423Z,11.53
2019-04-16T17:59:11.467Z,10.90
2019-04-16T18:01:47.502Z,10.47
2019-04-16T18:04:36.061Z,10.40
2019-04-16T18:07:13.987Z,9.63
2019-04-16T18:09:44.319Z,9.23
2019-04-16T18:12:32.402Z,9.90
2019-04-16T18:15:08.932Z,9.17
2019-04-16T18:17:53.729Z,9.47
2019-04-16T18:20:24.716Z,10.80
2019-04-16T18:22:57.502Z,11.07
2019-04-16T18:25:55.537Z,11.03
2019-04-16T18:28:22.122Z,10.97
2019-04-16T18:30:57.997Z,9.43
2019-04-16T18:36:41.682Z,11.20
2019-04-16T18:39:17.836Z,9.90
2019-04-16T18:41:48.986Z,10.70
2019-04-16T18:44:37.980Z,12.00
2019-04-16T18:47:11.299Z,10.87
2019-04-16T18:49:41.582Z,10.43
2019-04-16T18:52:12.730Z,12.50
2019-04-16T18:54:49.408Z,12.33
2019-04-16T18:57:17.422Z,10.77
2019-04-16T18:59:47.743Z,12.43
2019-04-16T19:02:18.099Z,13.93
2019-04-16T19:04:50.882Z,12.23
2019-04-16T19:07:18.730Z,12.53
2019-04-16T19:09:49.092Z,12.57
2019-04-16T19:12:20.181Z,14.07
2019-04-16T19:14:52.543Z,11.70
2019-04-16T19:17:23.908Z,10.60
2019-04-16T19:19:54.278Z,11.23
2019-04-16T19:22:25.578Z,13.07
2019-04-16T19:24:57.963Z,11.33
2019-04-16T19:27:30.829Z,11.47
2019-04-16T19:29:58.596Z,12.90
2019-04-16T19:32:35.160Z,11.47
2019-04-16T19:35:10.619Z,9.20
2019-04-16T19:37:34.709Z,10.13
2019-04-16T19:40:05.062Z,12.33
2019-04-16T19:42:35.375Z,11.73
2019-04-16T19:45:11.424Z,8.33
2019-04-16T19:47:36.041Z,11.17
2019-04-16T19:50:06.361Z,11.47
2019-04-16T19:52:37.450Z,10.00
2019-04-16T19:55:12.414Z,11.33
2019-04-16T19:57:39.140Z,8.70
2019-04-16T20:00:09.463Z,10.67
2019-04-16T20:02:41.862Z,10.40
2019-04-16T20:05:12.185Z,10.13
2019-04-16T20:07:42.536Z,11.43
2019-04-16T20:10:13.661Z,12.17
2019-04-16T20:12:43.979Z,10.87
2019-04-16T20:15:14.302Z,10.47
2019-04-16T20:17:44.678Z,10.53
2019-04-16T20:20:15.877Z,8.80
2019-04-16T20:22:46.194Z,8.43
2019-04-16T20:25:16.539Z,8.53
2019-04-16T20:27:46.861Z,7.83
2019-04-16T20:30:17.192Z,7.47
2019-04-16T20:32:47.533Z,8.10
2019-04-16T20:35:19.080Z,8.87
2019-04-16T20:37:50.488Z,7.27
2019-04-16T20:40:19.280Z,8.17
2019-04-16T20:42:49.595Z,6.93
2019-04-16T20:45:24.000Z,8.20
2019-04-16T20:47:58.518Z,7.47
2019-04-16T20:50:28.761Z,8.97
2019-04-16T20:53:20.520Z,7.97
2019-04-16T20:55:50.831Z,8.90
2019-04-16T20:58:21.148Z,9.40
2019-04-16T21:00:51.492Z,12.67
2019-04-16T21:03:22.828Z,15.17
2019-04-16T21:05:59.221Z,12.30
2019-04-16T21:08:25.071Z,12.47
2019-04-16T21:10:52.789Z,9.43
2019-04-16T21:13:23.116Z,10.87
2019-04-16T21:15:53.467Z,10.17
2019-04-16T21:18:23.786Z,10.70
2019-04-16T21:20:54.876Z,10.83
2019-04-16T21:23:28.044Z,9.93
2019-04-16T21:25:58.365Z,9.87
2019-04-16T21:28:28.682Z,8.83
2019-04-16T21:31:08.290Z,8.67
2019-04-16T21:33:38.355Z,6.73
2019-04-16T21:36:11.151Z,8.07
2019-04-16T21:38:42.314Z,8.03
2019-04-16T21:41:13.846Z,6.70
2019-04-16T21:43:44.181Z,6.47
2019-04-16T21:46:20.193Z,7.60
2019-04-16T21:48:49.943Z,7.23
2019-04-16T21:51:24.106Z,7.97
2019-04-16T21:53:50.604Z,9.70
2019-04-16T21:56:27.072Z,11.90
2019-04-16T21:59:00.487Z,10.30
2019-04-16T22:01:42.449Z,9.50
2019-04-16T22:04:14.460Z,9.77
2019-04-16T22:06:43.118Z,9.20
2019-04-16T22:09:14.453Z,8.20
2019-04-16T22:11:44.807Z,9.93
2019-04-16T22:14:15.118Z,9.47
2019-04-16T22:16:45.443Z,8.07
2019-04-16T22:19:15.785Z,9.97
2019-04-16T22:21:46.096Z,9.20
2019-04-16T22:24:22.886Z,8.90
2019-04-16T22:26:51.155Z,8.77
2019-04-16T22:29:27.629Z,9.33
2019-04-16T22:32:18.340Z,10.07
2019-04-16T22:34:48.685Z,10.80
2019-04-16T22:37:19.002Z,10.03
2019-04-16T22:39:52.012Z,11.20
2019-04-16T22:42:39.907Z,9.00
2019-04-16T22:45:10.223Z,10.53
2019-04-16T22:50:26.297Z,9.57
2019-04-16T22:52:57.618Z,9.97
2019-04-16T22:55:27.936Z,10.03
2019-04-16T22:57:59.823Z,12.17
2019-04-16T23:00:31.521Z,9.53
2019-04-16T23:03:03.910Z,11.53
2019-04-16T23:05:39.344Z,10.77
2019-04-16T23:08:13.072Z,10.07
2019-04-16T23:10:43.064Z,10.90
2019-04-16T23:13:13.373Z,9.57
2019-04-16T23:15:43.717Z,10.53
2019-04-16T23:18:17.505Z,10.37
2019-04-16T23:20:46.400Z,10.00
2019-04-16T23:23:19.050Z,11.27
2019-04-16T23:25:47.059Z,11.00
2019-04-16T23:28:17.370Z,12.37
2019-04-16T23:30:48.039Z,10.77
2019-04-16T23:33:18.030Z,12.10
2019-04-16T23:35:48.347Z,10.00
2019-04-16T23:38:18.689Z,12.03
2019-04-16T23:40:50.031Z,12.20
2019-04-16T23:43:38.223Z,12.90
2019-04-16T23:46:26.495Z,11.23
2019-04-16T23:49:06.370Z,12.13
2019-04-16T23:51:36.688Z,10.90
2019-04-16T23:54:08.007Z,12.37
2019-04-16T23:56:37.353Z,10.27
2019-04-16T23:59:28.510Z,10.83
